sensor_id;sensor_type;location;lat;lon;timestamp;P1;durP1;ratioP1;P2;durP2;ratioP2
23163;SDS011;31429;42.674;23.350;2023-06-14T00:00:06;28.50;;;20.93;;
23163;SDS011;31429;42.674;23.350;2023-06-14T00:01:09;30.67;;;21.63;;
23163;SDS011;31429;42.674;23.350;2023-06-14T00:02:10;37.73;;;28.47;;
23163;SDS011;31429;42.674;23.350;2023-06-14T00:03:10;27.30;;;18.53;;
23163;SDS011;31429;42.674;23.350;2023-06-14T00:04:11;35.90;;;28.00;;
23163;SDS011;31429;42.674;23.350;2023-06-14T00:05:12;50.27;;;40.47;;
23163;SDS011;31429;42.674;23.350;2023-06-14T00:06:14;64.03;;;49.97;;
23163;SDS011;31429;42.674;23.350;2023-06-14T00:07:14;63.20;;;50.00;;
23163;SDS011;31429;42.674;23.350;2023-06-14T00:08:16;71.07;;;60.07;;
23163;SDS011;31429;42.674;23.350;2023-06-14T00:09:18;84.13;;;69.30;;
23163;SDS011;31429;42.674;23.350;2023-06-14T00:10:19;38.97;;;31.27;;
23163;SDS011;31429;42.674;23.350;2023-06-14T00:11:20;31.83;;;24.50;;
23163;SDS011;31429;42.674;23.350;2023-06-14T00:12:21;29.43;;;19.47;;
23163;SDS011;31429;42.674;23.350;2023-06-14T00:13:21;39.40;;;33.90;;
23163;SDS011;31429;42.674;23.350;2023-06-14T00:14:23;23.97;;;19.17;;
23163;SDS011;31429;42.674;23.350;2023-06-14T00:15:24;23.43;;;20.37;;
23163;SDS011;31429;42.674;23.350;2023-06-14T00:16:26;19.93;;;15.07;;
23163;SDS011;31429;42.674;23.350;2023-06-14T00:17:27;28.97;;;24.40;;
23163;SDS011;31429;42.674;23.350;2023-06-14T00:18:30;23.30;;;17.27;;
23163;SDS011;31429;42.674;23.350;2023-06-14T00:19:30;24.30;;;20.10;;
23163;SDS011;31429;42.674;23.350;2023-06-14T00:20:34;21.33;;;15.43;;
23163;SDS011;31429;42.674;23.350;2023-06-14T00:21:35;28.53;;;19.43;;
23163;SDS011;31429;42.674;23.350;2023-06-14T00:22:36;20.93;;;17.77;;
23163;SDS011;31429;42.674;23.350;2023-06-14T00:23:38;25.30;;;16.53;;
23163;SDS011;31429;42.674;23.350;2023-06-14T00:24:39;20.07;;;15.37;;
23163;SDS011;31429;42.674;23.350;2023-06-14T00:25:40;20.43;;;16.53;;
23163;SDS011;31429;42.674;23.350;2023-06-14T00:26:40;24.93;;;21.33;;
23163;SDS011;31429;42.674;23.350;2023-06-14T00:27:41;32.10;;;24.40;;
23163;SDS011;31429;42.674;23.350;2023-06-14T00:28:42;38.67;;;31.80;;
23163;SDS011;31429;42.674;23.350;2023-06-14T00:29:42;28.97;;;21.83;;
23163;SDS011;31429;42.674;23.350;2023-06-14T00:30:43;59.53;;;48.10;;
23163;SDS011;31429;42.674;23.350;2023-06-14T00:31:47;30.33;;;25.77;;
23163;SDS011;31429;42.674;23.350;2023-06-14T00:32:48;24.60;;;19.17;;
23163;SDS011;31429;42.674;23.350;2023-06-14T00:33:49;32.00;;;27.73;;
23163;SDS011;31429;42.674;23.350;2023-06-14T00:34:50;25.87;;;21.93;;
23163;SDS011;31429;42.674;23.350;2023-06-14T00:35:51;52.83;;;44.17;;
23163;SDS011;31429;42.674;23.350;2023-06-14T00:36:54;48.43;;;40.57;;
23163;SDS011;31429;42.674;23.350;2023-06-14T00:37:54;53.13;;;45.33;;
23163;SDS011;31429;42.674;23.350;2023-06-14T00:38:55;44.13;;;38.53;;
23163;SDS011;31429;42.674;23.350;2023-06-14T00:39:56;46.50;;;37.37;;
23163;SDS011;31429;42.674;23.350;2023-06-14T00:40:56;38.03;;;29.87;;
23163;SDS011;31429;42.674;23.350;2023-06-14T00:41:57;32.67;;;24.53;;
23163;SDS011;31429;42.674;23.350;2023-06-14T00:42:59;36.70;;;29.07;;
23163;SDS011;31429;42.674;23.350;2023-06-14T00:44:00;41.27;;;33.10;;
23163;SDS011;31429;42.674;23.350;2023-06-14T00:45:01;39.57;;;33.57;;
23163;SDS011;31429;42.674;23.350;2023-06-14T00:46:01;33.80;;;26.47;;
23163;SDS011;31429;42.674;23.350;2023-06-14T00:47:04;38.93;;;31.20;;
23163;SDS011;31429;42.674;23.350;2023-06-14T00:48:04;28.10;;;24.17;;
23163;SDS011;31429;42.674;23.350;2023-06-14T00:49:07;25.20;;;19.90;;
23163;SDS011;31429;42.674;23.350;2023-06-14T00:50:08;33.63;;;25.00;;
23163;SDS011;31429;42.674;23.350;2023-06-14T00:51:10;21.83;;;14.33;;
23163;SDS011;31429;42.674;23.350;2023-06-14T00:52:10;18.87;;;15.57;;
23163;SDS011;31429;42.674;23.350;2023-06-14T00:53:12;17.97;;;14.10;;
23163;SDS011;31429;42.674;23.350;2023-06-14T00:54:15;18.13;;;13.47;;
23163;SDS011;31429;42.674;23.350;2023-06-14T00:55:16;17.43;;;15.13;;
23163;SDS011;31429;42.674;23.350;2023-06-14T00:56:16;18.70;;;13.67;;
23163;SDS011;31429;42.674;23.350;2023-06-14T00:57:20;22.03;;;14.23;;
23163;SDS011;31429;42.674;23.350;2023-06-14T00:58:21;20.23;;;15.27;;
23163;SDS011;31429;42.674;23.350;2023-06-14T00:59:23;19.87;;;14.80;;
23163;SDS011;31429;42.674;23.350;2023-06-14T01:00:23;22.87;;;18.60;;
23163;SDS011;31429;42.674;23.350;2023-06-14T01:01:24;22.83;;;16.77;;
23163;SDS011;31429;42.674;23.350;2023-06-14T01:02:26;19.43;;;15.10;;
23163;SDS011;31429;42.674;23.350;2023-06-14T01:03:27;19.60;;;15.43;;
23163;SDS011;31429;42.674;23.350;2023-06-14T01:04:28;21.10;;;14.70;;
23163;SDS011;31429;42.674;23.350;2023-06-14T01:05:29;23.03;;;18.37;;
23163;SDS011;31429;42.674;23.350;2023-06-14T01:06:31;37.63;;;28.53;;
23163;SDS011;31429;42.674;23.350;2023-06-14T01:07:45;42.33;;;28.83;;
23163;SDS011;31429;42.674;23.350;2023-06-14T01:08:57;36.37;;;29.97;;
23163;SDS011;31429;42.674;23.350;2023-06-14T01:10:08;30.27;;;26.33;;
23163;SDS011;31429;42.674;23.350;2023-06-14T01:11:22;35.60;;;27.43;;
23163;SDS011;31429;42.674;23.350;2023-06-14T01:12:29;36.60;;;31.00;;
23163;SDS011;31429;42.674;23.350;2023-06-14T01:13:36;30.07;;;24.80;;
23163;SDS011;31429;42.674;23.350;2023-06-14T01:14:39;30.23;;;26.57;;
23163;SDS011;31429;42.674;23.350;2023-06-14T01:15:41;32.20;;;28.73;;
23163;SDS011;31429;42.674;23.350;2023-06-14T01:16:43;34.17;;;27.43;;
23163;SDS011;31429;42.674;23.350;2023-06-14T01:17:46;28.67;;;25.53;;
23163;SDS011;31429;42.674;23.350;2023-06-14T01:18:51;28.53;;;25.43;;
23163;SDS011;31429;42.674;23.350;2023-06-14T01:19:56;26.47;;;23.63;;
23163;SDS011;31429;42.674;23.350;2023-06-14T01:20:58;26.87;;;23.30;;
23163;SDS011;31429;42.674;23.350;2023-06-14T01:21:59;28.40;;;23.47;;
23163;SDS011;31429;42.674;23.350;2023-06-14T01:23:02;24.53;;;21.73;;
23163;SDS011;31429;42.674;23.350;2023-06-14T01:24:02;29.00;;;23.07;;
23163;SDS011;31429;42.674;23.350;2023-06-14T01:25:04;27.83;;;23.87;;
23163;SDS011;31429;42.674;23.350;2023-06-14T01:26:05;27.23;;;23.20;;
23163;SDS011;31429;42.674;23.350;2023-06-14T01:27:06;24.67;;;20.93;;
23163;SDS011;31429;42.674;23.350;2023-06-14T01:28:08;21.53;;;17.33;;
23163;SDS011;31429;42.674;23.350;2023-06-14T01:29:11;16.20;;;14.50;;
23163;SDS011;31429;42.674;23.350;2023-06-14T01:30:17;19.77;;;16.93;;
23163;SDS011;31429;42.674;23.350;2023-06-14T01:31:20;17.87;;;16.00;;
23163;SDS011;31429;42.674;23.350;2023-06-14T01:32:23;22.70;;;17.40;;
23163;SDS011;31429;42.674;23.350;2023-06-14T01:33:26;21.37;;;18.50;;
23163;SDS011;31429;42.674;23.350;2023-06-14T01:34:28;22.50;;;17.93;;
23163;SDS011;31429;42.674;23.350;2023-06-14T01:35:29;27.13;;;17.00;;
23163;SDS011;31429;42.674;23.350;2023-06-14T01:36:30;23.33;;;19.60;;
23163;SDS011;31429;42.674;23.350;2023-06-14T01:37:31;21.87;;;19.50;;
23163;SDS011;31429;42.674;23.350;2023-06-14T01:38:33;20.67;;;18.17;;
23163;SDS011;31429;42.674;23.350;2023-06-14T01:39:34;25.50;;;20.47;;
23163;SDS011;31429;42.674;23.350;2023-06-14T01:40:35;25.63;;;19.93;;
23163;SDS011;31429;42.674;23.350;2023-06-14T01:41:36;23.13;;;19.73;;
23163;SDS011;31429;42.674;23.350;2023-06-14T01:42:37;20.73;;;18.53;;
23163;SDS011;31429;42.674;23.350;2023-06-14T01:43:39;22.20;;;19.80;;
23163;SDS011;31429;42.674;23.350;2023-06-14T01:44:41;17.43;;;14.63;;
23163;SDS011;31429;42.674;23.350;2023-06-14T01:45:44;26.37;;;19.43;;
23163;SDS011;31429;42.674;23.350;2023-06-14T01:46:47;18.20;;;14.70;;
23163;SDS011;31429;42.674;23.350;2023-06-14T01:47:48;15.80;;;12.73;;
23163;SDS011;31429;42.674;23.350;2023-06-14T01:48:49;15.50;;;12.10;;
23163;SDS011;31429;42.674;23.350;2023-06-14T01:49:50;14.33;;;12.87;;
23163;SDS011;31429;42.674;23.350;2023-06-14T01:50:51;18.07;;;13.03;;
23163;SDS011;31429;42.674;23.350;2023-06-14T01:51:52;19.97;;;12.67;;
23163;SDS011;31429;42.674;23.350;2023-06-14T01:52:53;17.20;;;13.03;;
23163;SDS011;31429;42.674;23.350;2023-06-14T01:53:55;19.87;;;15.97;;
23163;SDS011;31429;42.674;23.350;2023-06-14T01:54:57;17.33;;;15.47;;
23163;SDS011;31429;42.674;23.350;2023-06-14T01:55:58;17.70;;;15.97;;
23163;SDS011;31429;42.674;23.350;2023-06-14T01:56:59;17.33;;;15.53;;
23163;SDS011;31429;42.674;23.350;2023-06-14T01:57:59;20.00;;;16.60;;
23163;SDS011;31429;42.674;23.350;2023-06-14T01:59:00;20.77;;;15.27;;
23163;SDS011;31429;42.674;23.350;2023-06-14T02:00:01;15.60;;;13.93;;
23163;SDS011;31429;42.674;23.350;2023-06-14T02:01:03;16.10;;;14.27;;
23163;SDS011;31429;42.674;23.350;2023-06-14T02:02:05;15.60;;;13.60;;
23163;SDS011;31429;42.674;23.350;2023-06-14T02:03:06;18.17;;;14.60;;
23163;SDS011;31429;42.674;23.350;2023-06-14T02:04:06;19.67;;;13.57;;
23163;SDS011;31429;42.674;23.350;2023-06-14T02:05:07;16.70;;;14.17;;
23163;SDS011;31429;42.674;23.350;2023-06-14T02:06:09;18.13;;;13.33;;
23163;SDS011;31429;42.674;23.350;2023-06-14T02:07:10;17.03;;;13.50;;
23163;SDS011;31429;42.674;23.350;2023-06-14T02:08:11;19.37;;;15.27;;
23163;SDS011;31429;42.674;23.350;2023-06-14T02:09:13;18.50;;;16.40;;
23163;SDS011;31429;42.674;23.350;2023-06-14T02:10:14;21.37;;;16.83;;
23163;SDS011;31429;42.674;23.350;2023-06-14T02:11:15;18.40;;;14.30;;
23163;SDS011;31429;42.674;23.350;2023-06-14T02:12:16;17.80;;;14.23;;
23163;SDS011;31429;42.674;23.350;2023-06-14T02:13:17;17.80;;;13.90;;
23163;SDS011;31429;42.674;23.350;2023-06-14T02:14:18;18.30;;;14.27;;
23163;SDS011;31429;42.674;23.350;2023-06-14T02:15:19;17.23;;;14.00;;
23163;SDS011;31429;42.674;23.350;2023-06-14T02:16:19;18.10;;;14.60;;
23163;SDS011;31429;42.674;23.350;2023-06-14T02:17:20;19.77;;;15.80;;
23163;SDS011;31429;42.674;23.350;2023-06-14T02:18:21;18.00;;;13.37;;
23163;SDS011;31429;42.674;23.350;2023-06-14T02:19:21;19.13;;;13.83;;
23163;SDS011;31429;42.674;23.350;2023-06-14T02:20:22;24.67;;;14.83;;
23163;SDS011;31429;42.674;23.350;2023-06-14T02:21:23;17.70;;;14.40;;
23163;SDS011;31429;42.674;23.350;2023-06-14T02:22:23;26.63;;;16.87;;
23163;SDS011;31429;42.674;23.350;2023-06-14T02:23:24;18.73;;;14.60;;
23163;SDS011;31429;42.674;23.350;2023-06-14T02:24:26;22.23;;;15.17;;
23163;SDS011;31429;42.674;23.350;2023-06-14T02:25:27;17.83;;;13.43;;
23163;SDS011;31429;42.674;23.350;2023-06-14T02:26:28;16.63;;;14.67;;
23163;SDS011;31429;42.674;23.350;2023-06-14T02:27:29;18.97;;;15.17;;
23163;SDS011;31429;42.674;23.350;2023-06-14T02:28:29;16.57;;;14.87;;
23163;SDS011;31429;42.674;23.350;2023-06-14T02:29:30;22.40;;;17.43;;
23163;SDS011;31429;42.674;23.350;2023-06-14T02:30:31;20.33;;;16.37;;
23163;SDS011;31429;42.674;23.350;2023-06-14T02:31:31;17.80;;;14.80;;
23163;SDS011;31429;42.674;23.350;2023-06-14T02:32:33;16.47;;;14.23;;
23163;SDS011;31429;42.674;23.350;2023-06-14T02:33:36;22.60;;;16.00;;
23163;SDS011;31429;42.674;23.350;2023-06-14T02:34:37;22.50;;;15.10;;
23163;SDS011;31429;42.674;23.350;2023-06-14T02:35:41;23.43;;;16.17;;
23163;SDS011;31429;42.674;23.350;2023-06-14T02:36:41;21.20;;;17.73;;
23163;SDS011;31429;42.674;23.350;2023-06-14T02:37:45;24.07;;;17.17;;
23163;SDS011;31429;42.674;23.350;2023-06-14T02:38:46;21.23;;;16.67;;
23163;SDS011;31429;42.674;23.350;2023-06-14T02:39:48;19.13;;;16.37;;
23163;SDS011;31429;42.674;23.350;2023-06-14T02:40:49;19.07;;;16.87;;
23163;SDS011;31429;42.674;23.350;2023-06-14T02:41:49;19.23;;;15.60;;
23163;SDS011;31429;42.674;23.350;2023-06-14T02:42:50;19.77;;;15.53;;
23163;SDS011;31429;42.674;23.350;2023-06-14T02:43:51;17.03;;;15.07;;
23163;SDS011;31429;42.674;23.350;2023-06-14T02:44:52;19.47;;;15.67;;
23163;SDS011;31429;42.674;23.350;2023-06-14T02:45:52;21.37;;;16.57;;
23163;SDS011;31429;42.674;23.350;2023-06-14T02:46:53;20.47;;;15.83;;
23163;SDS011;31429;42.674;23.350;2023-06-14T02:47:54;23.20;;;16.63;;
23163;SDS011;31429;42.674;23.350;2023-06-14T02:48:55;20.97;;;15.87;;
23163;SDS011;31429;42.674;23.350;2023-06-14T02:49:56;22.43;;;16.97;;
23163;SDS011;31429;42.674;23.350;2023-06-14T02:50:57;21.40;;;17.40;;
23163;SDS011;31429;42.674;23.350;2023-06-14T02:51:58;22.37;;;16.70;;
23163;SDS011;31429;42.674;23.350;2023-06-14T02:52:58;17.17;;;15.27;;
23163;SDS011;31429;42.674;23.350;2023-06-14T02:53:59;20.63;;;16.90;;
23163;SDS011;31429;42.674;23.350;2023-06-14T02:55:01;18.47;;;16.47;;
23163;SDS011;31429;42.674;23.350;2023-06-14T02:56:02;20.27;;;15.37;;
23163;SDS011;31429;42.674;23.350;2023-06-14T02:57:04;22.23;;;16.27;;
23163;SDS011;31429;42.674;23.350;2023-06-14T02:58:07;21.40;;;17.47;;
23163;SDS011;31429;42.674;23.350;2023-06-14T02:59:07;19.10;;;16.00;;
23163;SDS011;31429;42.674;23.350;2023-06-14T03:00:09;20.17;;;15.97;;
23163;SDS011;31429;42.674;23.350;2023-06-14T03:01:13;18.77;;;15.10;;
23163;SDS011;31429;42.674;23.350;2023-06-14T03:02:14;17.70;;;14.93;;
23163;SDS011;31429;42.674;23.350;2023-06-14T03:03:14;15.10;;;13.53;;
23163;SDS011;31429;42.674;23.350;2023-06-14T03:04:16;16.70;;;14.87;;
23163;SDS011;31429;42.674;23.350;2023-06-14T03:05:17;21.70;;;14.57;;
23163;SDS011;31429;42.674;23.350;2023-06-14T03:06:21;16.77;;;14.27;;
23163;SDS011;31429;42.674;23.350;2023-06-14T03:07:25;20.53;;;14.17;;
23163;SDS011;31429;42.674;23.350;2023-06-14T03:08:27;17.83;;;14.70;;
23163;SDS011;31429;42.674;23.350;2023-06-14T03:09:29;16.17;;;13.73;;
23163;SDS011;31429;42.674;23.350;2023-06-14T03:10:31;19.00;;;13.77;;
23163;SDS011;31429;42.674;23.350;2023-06-14T03:11:32;18.30;;;14.47;;
23163;SDS011;31429;42.674;23.350;2023-06-14T03:12:33;18.67;;;14.57;;
23163;SDS011;31429;42.674;23.350;2023-06-14T03:13:34;21.77;;;14.43;;
23163;SDS011;31429;42.674;23.350;2023-06-14T03:14:35;17.43;;;15.10;;
23163;SDS011;31429;42.674;23.350;2023-06-14T03:15:36;22.33;;;15.83;;
23163;SDS011;31429;42.674;23.350;2023-06-14T03:16:36;18.03;;;16.13;;
23163;SDS011;31429;42.674;23.350;2023-06-14T03:17:37;16.63;;;14.53;;
23163;SDS011;31429;42.674;23.350;2023-06-14T03:18:38;20.07;;;13.63;;
23163;SDS011;31429;42.674;23.350;2023-06-14T03:19:39;19.27;;;17.10;;
23163;SDS011;31429;42.674;23.350;2023-06-14T03:20:41;18.93;;;15.17;;
23163;SDS011;31429;42.674;23.350;2023-06-14T03:21:42;19.83;;;15.17;;
23163;SDS011;31429;42.674;23.350;2023-06-14T03:22:44;21.93;;;14.67;;
23163;SDS011;31429;42.674;23.350;2023-06-14T03:23:46;16.30;;;14.60;;
23163;SDS011;31429;42.674;23.350;2023-06-14T03:24:47;16.83;;;13.70;;
23163;SDS011;31429;42.674;23.350;2023-06-14T03:25:49;17.97;;;15.27;;
23163;SDS011;31429;42.674;23.350;2023-06-14T03:26:50;19.50;;;14.97;;
23163;SDS011;31429;42.674;23.350;2023-06-14T03:27:51;16.70;;;14.23;;
23163;SDS011;31429;42.674;23.350;2023-06-14T03:28:51;18.13;;;15.87;;
23163;SDS011;31429;42.674;23.350;2023-06-14T03:29:52;18.40;;;15.30;;
23163;SDS011;31429;42.674;23.350;2023-06-14T03:30:53;17.97;;;15.17;;
23163;SDS011;31429;42.674;23.350;2023-06-14T03:31:57;16.57;;;14.80;;
23163;SDS011;31429;42.674;23.350;2023-06-14T03:32:58;20.10;;;15.43;;
23163;SDS011;31429;42.674;23.350;2023-06-14T03:34:01;22.37;;;15.23;;
23163;SDS011;31429;42.674;23.350;2023-06-14T03:35:02;16.53;;;14.07;;
23163;SDS011;31429;42.674;23.350;2023-06-14T03:36:03;15.93;;;14.10;;
23163;SDS011;31429;42.674;23.350;2023-06-14T03:37:04;16.53;;;14.83;;
23163;SDS011;31429;42.674;23.350;2023-06-14T03:38:05;21.27;;;14.43;;
23163;SDS011;31429;42.674;23.350;2023-06-14T03:39:05;17.17;;;14.20;;
23163;SDS011;31429;42.674;23.350;2023-06-14T03:40:06;19.57;;;14.57;;
23163;SDS011;31429;42.674;23.350;2023-06-14T03:41:09;22.33;;;14.87;;
23163;SDS011;31429;42.674;23.350;2023-06-14T03:42:09;18.50;;;14.27;;
23163;SDS011;31429;42.674;23.350;2023-06-14T03:43:10;20.50;;;14.53;;
23163;SDS011;31429;42.674;23.350;2023-06-14T03:44:11;15.23;;;13.63;;
23163;SDS011;31429;42.674;23.350;2023-06-14T03:45:11;18.30;;;14.40;;
23163;SDS011;31429;42.674;23.350;2023-06-14T03:46:12;18.43;;;14.37;;
23163;SDS011;31429;42.674;23.350;2023-06-14T03:47:13;22.77;;;14.87;;
23163;SDS011;31429;42.674;23.350;2023-06-14T03:48:13;18.83;;;14.93;;
23163;SDS011;31429;42.674;23.350;2023-06-14T03:49:14;18.97;;;14.50;;
23163;SDS011;31429;42.674;23.350;2023-06-14T03:50:17;18.57;;;14.77;;
23163;SDS011;31429;42.674;23.350;2023-06-14T03:51:18;20.37;;;14.97;;
23163;SDS011;31429;42.674;23.350;2023-06-14T03:52:19;15.83;;;14.13;;
23163;SDS011;31429;42.674;23.350;2023-06-14T03:53:19;17.90;;;15.00;;
23163;SDS011;31429;42.674;23.350;2023-06-14T03:54:23;17.10;;;14.47;;
23163;SDS011;31429;42.674;23.350;2023-06-14T03:55:24;17.17;;;14.40;;
23163;SDS011;31429;42.674;23.350;2023-06-14T03:56:29;18.87;;;15.47;;
23163;SDS011;31429;42.674;23.350;2023-06-14T03:57:29;20.57;;;15.33;;
23163;SDS011;31429;42.674;23.350;2023-06-14T03:58:30;23.70;;;15.63;;
23163;SDS011;31429;42.674;23.350;2023-06-14T03:59:32;20.00;;;14.80;;
23163;SDS011;31429;42.674;23.350;2023-06-14T04:00:32;16.87;;;14.03;;
23163;SDS011;31429;42.674;23.350;2023-06-14T04:01:33;17.80;;;14.53;;
23163;SDS011;31429;42.674;23.350;2023-06-14T04:02:34;17.83;;;14.20;;
23163;SDS011;31429;42.674;23.350;2023-06-14T04:03:34;19.33;;;14.70;;
23163;SDS011;31429;42.674;23.350;2023-06-14T04:04:35;20.60;;;15.53;;
23163;SDS011;31429;42.674;23.350;2023-06-14T04:05:36;17.33;;;15.30;;
23163;SDS011;31429;42.674;23.350;2023-06-14T04:06:37;21.37;;;15.50;;
23163;SDS011;31429;42.674;23.350;2023-06-14T04:07:38;17.00;;;15.03;;
23163;SDS011;31429;42.674;23.350;2023-06-14T04:08:39;16.67;;;14.70;;
23163;SDS011;31429;42.674;23.350;2023-06-14T04:09:41;17.37;;;13.87;;
23163;SDS011;31429;42.674;23.350;2023-06-14T04:10:42;20.93;;;15.23;;
23163;SDS011;31429;42.674;23.350;2023-06-14T04:11:44;17.00;;;14.27;;
23163;SDS011;31429;42.674;23.350;2023-06-14T04:12:44;20.10;;;15.27;;
23163;SDS011;31429;42.674;23.350;2023-06-14T04:13:45;17.87;;;15.97;;
23163;SDS011;31429;42.674;23.350;2023-06-14T04:14:47;18.43;;;14.90;;
23163;SDS011;31429;42.674;23.350;2023-06-14T04:15:47;21.50;;;15.43;;
23163;SDS011;31429;42.674;23.350;2023-06-14T04:16:48;17.90;;;14.63;;
23163;SDS011;31429;42.674;23.350;2023-06-14T04:17:49;16.47;;;14.03;;
23163;SDS011;31429;42.674;23.350;2023-06-14T04:18:50;20.10;;;16.40;;
23163;SDS011;31429;42.674;23.350;2023-06-14T04:19:52;17.17;;;15.27;;
23163;SDS011;31429;42.674;23.350;2023-06-14T04:20:53;17.13;;;14.57;;
23163;SDS011;31429;42.674;23.350;2023-06-14T04:21:54;19.60;;;15.27;;
23163;SDS011;31429;42.674;23.350;2023-06-14T04:22:56;22.60;;;16.63;;
23163;SDS011;31429;42.674;23.350;2023-06-14T04:23:57;22.43;;;15.77;;
23163;SDS011;31429;42.674;23.350;2023-06-14T04:24:58;19.30;;;15.70;;
23163;SDS011;31429;42.674;23.350;2023-06-14T04:25:59;24.47;;;17.03;;
23163;SDS011;31429;42.674;23.350;2023-06-14T04:27:04;21.53;;;15.63;;
23163;SDS011;31429;42.674;23.350;2023-06-14T04:28:04;20.20;;;15.70;;
23163;SDS011;31429;42.674;23.350;2023-06-14T04:29:05;18.97;;;16.83;;
23163;SDS011;31429;42.674;23.350;2023-06-14T04:30:07;18.10;;;15.87;;
23163;SDS011;31429;42.674;23.350;2023-06-14T04:31:08;18.07;;;15.53;;
23163;SDS011;31429;42.674;23.350;2023-06-14T04:32:08;17.60;;;15.70;;
23163;SDS011;31429;42.674;23.350;2023-06-14T04:33:10;18.47;;;16.03;;
23163;SDS011;31429;42.674;23.350;2023-06-14T04:34:11;19.93;;;15.90;;
23163;SDS011;31429;42.674;23.350;2023-06-14T04:35:16;26.97;;;17.00;;
23163;SDS011;31429;42.674;23.350;2023-06-14T04:36:17;21.20;;;16.57;;
23163;SDS011;31429;42.674;23.350;2023-06-14T04:37:18;19.23;;;15.13;;
23163;SDS011;31429;42.674;23.350;2023-06-14T04:38:19;18.67;;;15.53;;
23163;SDS011;31429;42.674;23.350;2023-06-14T04:39:24;22.43;;;17.43;;
23163;SDS011;31429;42.674;23.350;2023-06-14T04:40:26;17.33;;;15.53;;
23163;SDS011;31429;42.674;23.350;2023-06-14T04:41:27;20.17;;;15.87;;
23163;SDS011;31429;42.674;23.350;2023-06-14T04:42:32;23.27;;;19.30;;
23163;SDS011;31429;42.674;23.350;2023-06-14T04:43:32;26.10;;;20.03;;
23163;SDS011;31429;42.674;23.350;2023-06-14T04:44:38;26.20;;;21.70;;
23163;SDS011;31429;42.674;23.350;2023-06-14T04:45:39;27.80;;;20.47;;
23163;SDS011;31429;42.674;23.350;2023-06-14T04:46:41;30.37;;;20.43;;
23163;SDS011;31429;42.674;23.350;2023-06-14T04:47:46;26.10;;;21.00;;
23163;SDS011;31429;42.674;23.350;2023-06-14T04:48:46;28.30;;;22.20;;
23163;SDS011;31429;42.674;23.350;2023-06-14T04:49:48;22.93;;;19.97;;
23163;SDS011;31429;42.674;23.350;2023-06-14T04:50:48;24.63;;;20.60;;
23163;SDS011;31429;42.674;23.350;2023-06-14T04:51:52;23.80;;;19.77;;
23163;SDS011;31429;42.674;23.350;2023-06-14T04:52:57;21.73;;;18.10;;
23163;SDS011;31429;42.674;23.350;2023-06-14T04:53:59;20.63;;;17.90;;
23163;SDS011;31429;42.674;23.350;2023-06-14T04:55:01;22.50;;;19.97;;
23163;SDS011;31429;42.674;23.350;2023-06-14T04:56:01;22.10;;;19.77;;
23163;SDS011;31429;42.674;23.350;2023-06-14T04:57:03;21.80;;;18.60;;
23163;SDS011;31429;42.674;23.350;2023-06-14T04:58:07;25.47;;;19.57;;
23163;SDS011;31429;42.674;23.350;2023-06-14T04:59:08;26.67;;;20.10;;
23163;SDS011;31429;42.674;23.350;2023-06-14T05:00:09;23.67;;;20.63;;
23163;SDS011;31429;42.674;23.350;2023-06-14T05:01:11;28.70;;;21.20;;
23163;SDS011;31429;42.674;23.350;2023-06-14T05:02:13;28.93;;;22.07;;
23163;SDS011;31429;42.674;23.350;2023-06-14T05:03:14;26.20;;;23.40;;
23163;SDS011;31429;42.674;23.350;2023-06-14T05:04:14;26.53;;;21.50;;
23163;SDS011;31429;42.674;23.350;2023-06-14T05:05:15;29.50;;;23.63;;
23163;SDS011;31429;42.674;23.350;2023-06-14T05:06:17;28.60;;;22.17;;
23163;SDS011;31429;42.674;23.350;2023-06-14T05:07:18;28.83;;;21.23;;
23163;SDS011;31429;42.674;23.350;2023-06-14T05:08:19;26.80;;;21.93;;
23163;SDS011;31429;42.674;23.350;2023-06-14T05:09:20;30.30;;;22.50;;
23163;SDS011;31429;42.674;23.350;2023-06-14T05:10:21;26.07;;;20.73;;
23163;SDS011;31429;42.674;23.350;2023-06-14T05:11:21;30.60;;;21.87;;
23163;SDS011;31429;42.674;23.350;2023-06-14T05:12:24;32.33;;;21.30;;
23163;SDS011;31429;42.674;23.350;2023-06-14T05:13:26;23.67;;;19.80;;
23163;SDS011;31429;42.674;23.350;2023-06-14T05:14:28;28.97;;;21.60;;
23163;SDS011;31429;42.674;23.350;2023-06-14T05:15:28;27.03;;;20.93;;
23163;SDS011;31429;42.674;23.350;2023-06-14T05:16:29;28.60;;;21.87;;
23163;SDS011;31429;42.674;23.350;2023-06-14T05:17:30;30.27;;;22.27;;
23163;SDS011;31429;42.674;23.350;2023-06-14T05:18:30;27.37;;;21.57;;
23163;SDS011;31429;42.674;23.350;2023-06-14T05:19:31;24.43;;;21.27;;
23163;SDS011;31429;42.674;23.350;2023-06-14T05:20:32;27.63;;;21.10;;
23163;SDS011;31429;42.674;23.350;2023-06-14T05:21:32;30.90;;;23.57;;
23163;SDS011;31429;42.674;23.350;2023-06-14T05:22:37;31.47;;;22.00;;
23163;SDS011;31429;42.674;23.350;2023-06-14T05:23:37;24.53;;;20.57;;
23163;SDS011;31429;42.674;23.350;2023-06-14T05:24:38;25.30;;;19.83;;
23163;SDS011;31429;42.674;23.350;2023-06-14T05:25:39;25.93;;;19.37;;
23163;SDS011;31429;42.674;23.350;2023-06-14T05:26:40;24.17;;;19.53;;
23163;SDS011;31429;42.674;23.350;2023-06-14T05:27:41;22.60;;;17.37;;
23163;SDS011;31429;42.674;23.350;2023-06-14T05:28:43;21.23;;;17.53;;
23163;SDS011;31429;42.674;23.350;2023-06-14T05:29:43;20.80;;;17.63;;
23163;SDS011;31429;42.674;23.350;2023-06-14T05:30:44;30.47;;;19.87;;
23163;SDS011;31429;42.674;23.350;2023-06-14T05:31:45;25.10;;;20.33;;
23163;SDS011;31429;42.674;23.350;2023-06-14T05:32:46;28.60;;;21.30;;
23163;SDS011;31429;42.674;23.350;2023-06-14T05:33:46;25.50;;;20.17;;
23163;SDS011;31429;42.674;23.350;2023-06-14T05:34:47;22.17;;;18.97;;
23163;SDS011;31429;42.674;23.350;2023-06-14T05:35:47;24.43;;;19.10;;
23163;SDS011;31429;42.674;23.350;2023-06-14T05:36:48;20.17;;;17.97;;
23163;SDS011;31429;42.674;23.350;2023-06-14T05:37:49;18.87;;;16.67;;
23163;SDS011;31429;42.674;23.350;2023-06-14T05:38:50;18.37;;;15.73;;
23163;SDS011;31429;42.674;23.350;2023-06-14T05:39:57;24.83;;;19.03;;
23163;SDS011;31429;42.674;23.350;2023-06-14T05:40:58;27.37;;;21.30;;
23163;SDS011;31429;42.674;23.350;2023-06-14T05:41:59;19.07;;;17.10;;
23163;SDS011;31429;42.674;23.350;2023-06-14T05:43:00;25.73;;;20.70;;
23163;SDS011;31429;42.674;23.350;2023-06-14T05:44:02;31.90;;;24.10;;
23163;SDS011;31429;42.674;23.350;2023-06-14T05:45:03;22.20;;;18.90;;
23163;SDS011;31429;42.674;23.350;2023-06-14T05:46:05;24.80;;;19.97;;
23163;SDS011;31429;42.674;23.350;2023-06-14T05:47:05;23.60;;;18.77;;
23163;SDS011;31429;42.674;23.350;2023-06-14T05:48:06;22.83;;;19.93;;
23163;SDS011;31429;42.674;23.350;2023-06-14T05:49:07;22.87;;;19.00;;
23163;SDS011;31429;42.674;23.350;2023-06-14T05:50:08;24.30;;;19.53;;
23163;SDS011;31429;42.674;23.350;2023-06-14T05:51:09;28.83;;;21.50;;
23163;SDS011;31429;42.674;23.350;2023-06-14T05:52:11;26.53;;;21.60;;
23163;SDS011;31429;42.674;23.350;2023-06-14T05:53:13;33.03;;;25.97;;
23163;SDS011;31429;42.674;23.350;2023-06-14T05:54:13;27.87;;;22.53;;